createdAt,value
2019-04-26T00:02:26.886Z,18.22
2019-04-26T00:04:57.931Z,18.21
2019-04-26T00:07:25.715Z,18.13
2019-04-26T00:09:55.166Z,17.99
2019-04-26T00:12:42.578Z,17.84
2019-04-26T00:15:24.888Z,17.66
2019-04-26T00:17:55.295Z,17.50
2019-04-26T00:20:23.343Z,17.44
2019-04-26T00:22:51.329Z,17.49
2019-04-26T00:25:20.166Z,17.52
2019-04-26T00:27:47.937Z,17.49
2019-04-26T00:30:16.999Z,17.52
2019-04-26T00:32:45.044Z,17.52
2019-04-26T00:35:14.006Z,17.46
2019-04-26T00:37:42.036Z,17.49
2019-04-26T00:40:10.173Z,17.47
2019-04-26T00:42:38.355Z,17.49
2019-04-26T00:45:06.595Z,17.44
2019-04-26T00:47:35.910Z,17.39
2019-04-26T00:50:06.230Z,17.40
2019-04-26T00:52:34.874Z,17.31
2019-04-26T00:55:03.606Z,17.35
2019-04-26T00:57:34.198Z,17.42
2019-04-26T01:00:03.000Z,17.33
2019-04-26T01:02:36.859Z,17.29
2019-04-26T01:05:05.019Z,17.21
2019-04-26T01:07:33.108Z,17.10
2019-04-26T01:10:00.999Z,17.01
2019-04-26T01:12:28.970Z,17.01
2019-04-26T01:14:56.898Z,17.07
2019-04-26T01:17:24.950Z,17.09
2019-04-26T01:19:54.606Z,17.10
2019-04-26T01:22:27.609Z,17.10
2019-04-26T01:24:56.700Z,17.12
2019-04-26T01:27:27.870Z,17.13
2019-04-26T01:29:59.619Z,17.02
2019-04-26T01:32:29.470Z,16.95
2019-04-26T01:34:57.780Z,16.87
2019-04-26T01:37:26.715Z,16.86
2019-04-26T01:40:00.628Z,16.81
2019-04-26T01:42:42.594Z,16.75
2019-04-26T01:45:21.779Z,16.78
2019-04-26T01:47:53.447Z,16.74
2019-04-26T01:50:25.339Z,16.78
2019-04-26T01:52:54.328Z,16.78
2019-04-26T01:55:23.531Z,16.75
2019-04-26T01:57:54.171Z,16.75
2019-04-26T02:00:32.636Z,16.77
2019-04-26T02:03:04.789Z,16.72
2019-04-26T02:05:32.802Z,16.75
2019-04-26T02:08:00.848Z,16.78
2019-04-26T02:10:28.820Z,16.74
2019-04-26T02:12:57.595Z,16.72
2019-04-26T02:15:29.364Z,16.75
2019-04-26T02:17:58.822Z,16.77
2019-04-26T02:20:55.823Z,16.74
2019-04-26T02:23:30.311Z,16.73
2019-04-26T02:26:17.752Z,16.76
2019-04-26T02:28:47.364Z,16.77
2019-04-26T02:31:16.277Z,16.75
2019-04-26T02:33:44.398Z,16.70
2019-04-26T02:36:12.692Z,16.70
2019-04-26T02:38:40.814Z,16.67
2019-04-26T02:41:09.019Z,16.71
2019-04-26T02:43:39.913Z,16.66
2019-04-26T02:46:15.897Z,16.67
2019-04-26T02:49:23.259Z,16.68
2019-04-26T02:51:59.763Z,16.67
2019-04-26T02:54:52.971Z,16.67
2019-04-26T02:57:29.205Z,16.67
2019-04-26T03:00:11.560Z,16.64
2019-04-26T03:02:40.530Z,16.61
2019-04-26T03:05:09.651Z,16.59
2019-04-26T03:08:05.960Z,16.59
2019-04-26T03:10:54.085Z,16.63
2019-04-26T03:13:51.312Z,16.59
2019-04-26T03:16:51.085Z,16.58
2019-04-26T03:19:41.069Z,16.62
2019-04-26T03:22:26.667Z,16.65
2019-04-26T03:25:04.524Z,16.62
2019-04-26T03:28:14.538Z,16.57
2019-04-26T03:31:20.185Z,16.53
2019-04-26T03:34:27.828Z,16.53
2019-04-26T03:37:44.634Z,16.47
2019-04-26T03:40:28.848Z,16.41
2019-04-26T03:43:47.307Z,16.39
2019-04-26T03:46:37.069Z,16.38
2019-04-26T03:49:30.029Z,16.37
2019-04-26T03:52:43.513Z,16.40
2019-04-26T03:56:08.087Z,16.35
2019-04-26T03:59:07.432Z,16.32
2019-04-26T04:01:46.270Z,16.39
2019-04-26T04:04:50.624Z,16.35
2019-04-26T04:07:35.931Z,16.33
2019-04-26T04:09:58.820Z,16.38
2019-04-26T04:12:42.234Z,16.47
2019-04-26T04:15:20.644Z,16.53
2019-04-26T04:18:04.039Z,16.58
2019-04-26T04:21:32.101Z,16.62
2019-04-26T04:24:51.386Z,16.58
2019-04-26T04:27:27.772Z,16.66
2019-04-26T04:30:14.758Z,16.70
2019-04-26T04:33:14.167Z,16.68
2019-04-26T04:35:55.651Z,16.73
2019-04-26T04:38:33.892Z,16.73
2019-04-26T04:41:17.947Z,16.74
2019-04-26T04:43:59.377Z,16.73
2019-04-26T04:47:33.694Z,16.72
2019-04-26T04:50:15.987Z,16.67
2019-04-26T04:52:54.955Z,16.68
2019-04-26T04:56:00.259Z,16.68
2019-04-26T04:58:36.493Z,16.72
2019-04-26T05:01:58.136Z,16.73
2019-04-26T05:05:03.939Z,16.72
2019-04-26T05:08:12.578Z,16.78
2019-04-26T05:10:49.850Z,16.76
2019-04-26T05:13:27.033Z,16.83
2019-04-26T05:16:33.150Z,16.87
2019-04-26T05:19:42.714Z,16.89
2019-04-26T05:22:57.667Z,16.99
2019-04-26T05:26:47.922Z,17.04
2019-04-26T05:30:21.615Z,17.07
2019-04-26T05:33:06.789Z,17.23
2019-04-26T05:36:11.256Z,17.23
2019-04-26T05:39:32.209Z,17.35
2019-04-26T05:43:12.122Z,17.48
2019-04-26T05:46:19.223Z,17.54
2019-04-26T05:49:18.739Z,17.76
2019-04-26T05:52:39.775Z,17.85
2019-04-26T05:55:59.696Z,17.93
2019-04-26T05:59:01.177Z,18.03
2019-04-26T06:02:05.010Z,18.13
2019-04-26T06:05:10.692Z,18.32
2019-04-26T06:08:31.632Z,18.32
2019-04-26T06:11:12.410Z,18.79
2019-04-26T06:14:43.280Z,18.79
2019-04-26T06:18:09.089Z,18.84
2019-04-26T06:20:44.063Z,18.84
2019-04-26T06:23:37.684Z,18.99
2019-04-26T06:27:11.033Z,19.02
2019-04-26T06:29:57.259Z,19.09
2019-04-26T06:32:37.480Z,19.19
2019-04-26T06:35:24.032Z,19.35
2019-04-26T06:39:05.782Z,19.40
2019-04-26T06:42:13.579Z,19.54
2019-04-26T06:45:44.415Z,19.58
2019-04-26T06:48:30.847Z,19.65
2019-04-26T06:51:24.037Z,19.82
2019-04-26T06:54:00.716Z,19.89
2019-04-26T06:56:46.060Z,20.02
2019-04-26T06:59:39.480Z,20.16
2019-04-26T07:02:25.527Z,20.30
2019-04-26T07:05:11.949Z,20.39
2019-04-26T07:08:06.805Z,20.45
2019-04-26T07:11:15.926Z,20.52
2019-04-26T07:14:08.673Z,20.60
2019-04-26T07:16:48.142Z,20.65
2019-04-26T07:19:52.256Z,20.70
2019-04-26T07:23:09.300Z,20.75
2019-04-26T07:26:21.281Z,20.87
2019-04-26T07:29:40.729Z,21.00
2019-04-26T07:32:27.598Z,21.05
2019-04-26T07:35:09.937Z,21.20
2019-04-26T07:38:09.017Z,21.29
2019-04-26T07:41:11.625Z,21.30
2019-04-26T07:44:11.889Z,21.43
2019-04-26T07:47:26.800Z,21.52
2019-04-26T07:50:40.844Z,21.67
2019-04-26T07:53:46.017Z,21.81
2019-04-26T07:56:37.773Z,21.87
2019-04-26T08:00:02.815Z,22.04
2019-04-26T08:02:56.545Z,22.11
2019-04-26T08:05:39.496Z,22.19
2019-04-26T08:08:10.858Z,22.22
2019-04-26T08:10:41.726Z,22.32
2019-04-26T08:13:13.845Z,22.41
2019-04-26T08:16:08.535Z,22.44
2019-04-26T08:18:45.870Z,22.59
2019-04-26T08:21:36.838Z,22.67
2019-04-26T08:24:32.399Z,22.81
2019-04-26T08:27:22.607Z,22.87
2019-04-26T08:29:47.207Z,23.01
2019-04-26T08:32:21.467Z,23.06
2019-04-26T08:34:57.580Z,23.13
2019-04-26T08:37:44.157Z,23.18
2019-04-26T08:40:16.392Z,23.36
2019-04-26T08:42:53.370Z,23.37
2019-04-26T08:45:45.603Z,23.46
2019-04-26T08:48:27.592Z,23.58
2019-04-26T08:50:58.199Z,23.74
2019-04-26T08:53:28.423Z,23.86
2019-04-26T08:56:00.310Z,24.05
2019-04-26T08:58:31.816Z,24.23
2019-04-26T09:01:18.629Z,24.33
2019-04-26T09:04:12.831Z,24.43
2019-04-26T09:07:09.776Z,24.54
2019-04-26T09:09:41.299Z,24.54
2019-04-26T09:12:23.021Z,24.71
2019-04-26T09:14:48.394Z,24.84
2019-04-26T09:17:16.432Z,24.88
2019-04-26T09:19:44.604Z,24.97
2019-04-26T09:22:22.678Z,25.13
2019-04-26T09:24:59.371Z,25.29
2019-04-26T09:27:35.741Z,25.35
2019-04-26T09:30:34.425Z,25.35
2019-04-26T09:33:22.457Z,25.53
2019-04-26T09:35:51.286Z,25.66
2019-04-26T09:38:19.105Z,25.73
2019-04-26T09:40:47.024Z,25.74
2019-04-26T09:43:21.467Z,25.95
2019-04-26T09:46:22.670Z,26.17
2019-04-26T09:49:07.154Z,26.16
2019-04-26T09:51:40.480Z,26.21
2019-04-26T09:54:08.294Z,26.37
2019-04-26T09:56:36.135Z,26.52
2019-04-26T09:59:05.556Z,26.69
2019-04-26T10:01:33.863Z,26.70
2019-04-26T10:04:01.723Z,26.72
2019-04-26T10:06:30.941Z,26.78
2019-04-26T10:08:59.118Z,26.80
2019-04-26T10:11:32.699Z,26.71
2019-04-26T10:14:10.259Z,26.81
2019-04-26T10:17:00.344Z,26.97
2019-04-26T10:19:43.753Z,27.07
2019-04-26T10:22:13.820Z,27.29
2019-04-26T10:24:41.804Z,27.41
2019-04-26T10:27:11.959Z,27.60
2019-04-26T10:29:40.042Z,27.56
2019-04-26T10:32:08.462Z,27.54
2019-04-26T10:34:36.351Z,27.59
2019-04-26T10:37:05.996Z,27.75
2019-04-26T10:39:36.891Z,27.77
2019-04-26T10:42:04.552Z,27.78
2019-04-26T10:44:35.644Z,27.72
2019-04-26T10:47:04.286Z,27.65
2019-04-26T10:49:41.482Z,27.84
2019-04-26T10:52:15.761Z,28.09
2019-04-26T10:54:47.532Z,28.16
2019-04-26T10:57:25.878Z,28.20
2019-04-26T10:59:58.447Z,28.28
2019-04-26T11:02:26.473Z,28.29
2019-04-26T11:04:54.242Z,28.27
2019-04-26T11:07:22.156Z,28.50
2019-04-26T11:09:50.433Z,28.62
2019-04-26T11:12:19.051Z,28.71
2019-04-26T11:14:47.018Z,28.90
2019-04-26T11:17:17.738Z,29.05
2019-04-26T11:19:45.904Z,29.04
2019-04-26T11:22:13.888Z,29.21
2019-04-26T11:24:41.755Z,29.40
2019-04-26T11:27:11.159Z,29.31
2019-04-26T11:29:40.056Z,29.18
2019-04-26T11:32:08.037Z,29.17
2019-04-26T11:34:36.189Z,29.10
2019-04-26T11:37:04.296Z,29.13
2019-04-26T11:39:36.573Z,29.00
2019-04-26T11:42:04.016Z,29.05
2019-04-26T11:44:32.642Z,29.01
2019-04-26T11:47:03.283Z,28.88
2019-04-26T11:49:30.368Z,28.86
2019-04-26T11:51:58.686Z,29.12
2019-04-26T11:54:28.085Z,29.35
2019-04-26T11:56:55.972Z,29.50
2019-04-26T11:59:27.084Z,29.72
2019-04-26T12:01:54.195Z,29.82
2019-04-26T12:04:49.475Z,29.82
2019-04-26T12:07:23.597Z,29.76
2019-04-26T12:09:53.264Z,29.99
2019-04-26T12:12:21.158Z,30.15
2019-04-26T12:14:49.090Z,30.28
2019-04-26T12:17:17.159Z,30.57
2019-04-26T12:19:48.174Z,30.54
2019-04-26T12:22:14.960Z,30.53
2019-04-26T12:24:42.827Z,30.57
2019-04-26T12:27:10.924Z,30.74
2019-04-26T12:29:39.046Z,30.79
2019-04-26T12:32:06.862Z,30.97
2019-04-26T12:34:37.534Z,31.10
2019-04-26T12:37:05.367Z,31.10
2019-04-26T12:39:36.743Z,30.87
2019-04-26T12:42:03.885Z,30.81
2019-04-26T12:44:42.308Z,30.77
2019-04-26T12:47:17.430Z,30.50
2019-04-26T12:49:45.310Z,30.52
2019-04-26T12:52:13.337Z,30.61
2019-04-26T12:54:43.005Z,30.59
2019-04-26T12:57:11.257Z,30.54
2019-04-26T12:59:44.462Z,30.50
2019-04-26T13:02:08.968Z,30.55
2019-04-26T13:04:40.617Z,30.69
2019-04-26T13:07:23.891Z,30.85
2019-04-26T13:10:26.476Z,30.94
2019-04-26T13:13:07.861Z,31.01
2019-04-26T13:16:08.640Z,31.10
2019-04-26T13:18:36.663Z,31.33
2019-04-26T13:21:04.746Z,31.42
2019-04-26T13:23:32.787Z,31.33
2019-04-26T13:26:01.538Z,31.12
2019-04-26T13:28:31.311Z,31.13
2019-04-26T13:31:01.985Z,31.20
2019-04-26T13:33:29.187Z,31.16
2019-04-26T13:36:04.621Z,31.23
2019-04-26T13:38:27.505Z,31.36
2019-04-26T13:40:55.565Z,31.49
2019-04-26T13:43:27.120Z,31.45
2019-04-26T13:46:15.801Z,31.52
2019-04-26T13:49:19.383Z,31.73
2019-04-26T13:51:47.417Z,31.77
2019-04-26T13:54:16.612Z,31.82
2019-04-26T13:56:45.128Z,31.86
2019-04-26T13:59:13.170Z,31.81
2019-04-26T14:01:41.366Z,31.74
2019-04-26T14:04:09.368Z,31.75
2019-04-26T14:06:37.282Z,31.87
2019-04-26T14:09:07.848Z,31.93
2019-04-26T14:11:43.471Z,32.03
2019-04-26T14:14:11.505Z,31.93
2019-04-26T14:16:40.106Z,31.73
2019-04-26T14:19:14.697Z,31.44
2019-04-26T14:21:38.291Z,31.47
2019-04-26T14:24:28.235Z,31.32
2019-04-26T14:26:59.600Z,31.33
2019-04-26T14:29:30.936Z,31.35
2019-04-26T14:31:57.422Z,31.42
2019-04-26T14:34:25.373Z,31.32
2019-04-26T14:37:05.902Z,31.21
2019-04-26T14:39:35.136Z,31.32
2019-04-26T14:41:57.054Z,31.43
2019-04-26T14:44:22.655Z,31.39
2019-04-26T14:46:53.237Z,31.33
2019-04-26T14:49:23.396Z,31.23
2019-04-26T14:51:51.152Z,31.20
2019-04-26T14:54:20.131Z,31.08
2019-04-26T14:56:52.327Z,31.01
2019-04-26T14:59:39.334Z,30.97
2019-04-26T15:02:20.530Z,31.00
2019-04-26T15:04:53.751Z,30.94
2019-04-26T15:07:22.251Z,30.79
2019-04-26T15:09:50.396Z,30.66
2019-04-26T15:12:19.214Z,30.72
2019-04-26T15:14:49.396Z,30.69
2019-04-26T15:17:20.111Z,30.65
2019-04-26T15:19:47.323Z,30.62
2019-04-26T15:22:15.599Z,30.61
2019-04-26T15:24:44.343Z,30.53
2019-04-26T15:27:12.311Z,30.51
2019-04-26T15:29:40.140Z,30.43
2019-04-26T15:32:08.051Z,30.40
2019-04-26T15:34:36.091Z,30.35
2019-04-26T15:37:04.946Z,30.18
2019-04-26T15:39:42.381Z,30.03
2019-04-26T15:42:32.008Z,30.01
2019-04-26T15:45:25.015Z,29.90
2019-04-26T15:48:09.952Z,29.83
2019-04-26T15:50:50.145Z,29.78
2019-04-26T15:53:14.664Z,29.68
2019-04-26T15:55:43.552Z,29.59
2019-04-26T15:58:12.260Z,29.45
2019-04-26T16:00:40.376Z,29.35
2019-04-26T16:03:08.506Z,29.27
2019-04-26T16:05:36.508Z,29.13
2019-04-26T16:08:04.730Z,29.09
2019-04-26T16:10:36.791Z,29.05
2019-04-26T16:13:16.201Z,28.98
2019-04-26T16:15:32.877Z,28.80
2019-04-26T16:18:03.863Z,28.69
2019-04-26T16:20:33.118Z,28.71
2019-04-26T16:23:06.173Z,28.71
2019-04-26T16:25:34.434Z,28.68
2019-04-26T16:28:19.031Z,28.62
2019-04-26T16:31:06.692Z,28.50
2019-04-26T16:33:35.623Z,28.38
2019-04-26T16:36:06.177Z,28.26
2019-04-26T16:38:35.059Z,28.06
2019-04-26T16:41:03.544Z,28.07
2019-04-26T16:43:39.502Z,28.05
2019-04-26T16:46:02.336Z,27.98
2019-04-26T16:48:30.595Z,27.91
2019-04-26T16:51:00.905Z,27.86
2019-04-26T16:53:43.875Z,27.83
2019-04-26T16:55:58.269Z,27.70
2019-04-26T16:58:31.057Z,27.63
2019-04-26T17:00:58.105Z,27.56
2019-04-26T17:03:26.364Z,27.46
2019-04-26T17:06:04.774Z,27.44
2019-04-26T17:08:24.574Z,27.37
2019-04-26T17:10:56.760Z,27.35
2019-04-26T17:13:23.936Z,27.24
2019-04-26T17:15:58.323Z,27.21
2019-04-26T17:18:27.112Z,27.19
2019-04-26T17:20:53.896Z,27.08
2019-04-26T17:23:40.162Z,27.01
2019-04-26T17:26:36.460Z,26.99
2019-04-26T17:29:03.718Z,26.96
2019-04-26T17:31:33.865Z,26.96
2019-04-26T17:34:03.537Z,26.91
2019-04-26T17:36:34.328Z,26.85
2019-04-26T17:39:01.932Z,26.73
2019-04-26T17:41:31.035Z,26.64
2019-04-26T17:44:08.277Z,26.57
2019-04-26T17:46:29.336Z,26.48
2019-04-26T17:48:57.272Z,26.38
2019-04-26T17:51:25.325Z,26.26
2019-04-26T17:54:20.387Z,26.29
2019-04-26T17:56:26.107Z,26.23
2019-04-26T17:58:54.882Z,26.18
2019-04-26T18:01:42.131Z,26.13
2019-04-26T18:03:55.708Z,26.16
2019-04-26T18:06:29.471Z,26.19
2019-04-26T18:08:55.220Z,26.15
2019-04-26T18:11:25.050Z,26.09
2019-04-26T18:13:53.365Z,26.01
2019-04-26T18:16:22.383Z,25.93
2019-04-26T18:19:12.765Z,25.87
2019-04-26T18:21:49.519Z,25.78
2019-04-26T18:24:18.485Z,25.67
2019-04-26T18:26:46.447Z,25.65
2019-04-26T18:29:14.495Z,25.59
2019-04-26T18:31:43.811Z,25.55
2019-04-26T18:34:12.808Z,25.49
2019-04-26T18:36:42.918Z,25.49
2019-04-26T18:39:11.338Z,25.43
2019-04-26T18:41:39.349Z,25.37
2019-04-26T18:44:07.375Z,25.35
2019-04-26T18:47:00.368Z,25.25
2019-04-26T18:49:28.923Z,25.14
2019-04-26T18:51:56.730Z,25.06
2019-04-26T18:54:29.983Z,25.05
2019-04-26T18:56:59.655Z,24.99
2019-04-26T18:59:28.008Z,24.91
2019-04-26T19:01:56.114Z,24.91
2019-04-26T19:04:24.102Z,24.88
2019-04-26T19:06:54.128Z,24.88
2019-04-26T19:09:24.742Z,24.85
2019-04-26T19:11:56.017Z,24.84
2019-04-26T19:15:03.128Z,24.79
2019-04-26T19:17:35.400Z,24.79
2019-04-26T19:20:20.109Z,24.80
2019-04-26T19:22:55.947Z,24.79
2019-04-26T19:25:25.504Z,24.73
2019-04-26T19:27:54.061Z,24.73
2019-04-26T19:30:22.448Z,24.79
2019-04-26T19:32:53.590Z,24.82
2019-04-26T19:35:21.941Z,24.84
2019-04-26T19:37:51.809Z,24.85
2019-04-26T19:40:22.767Z,24.83
2019-04-26T19:42:55.372Z,24.77
2019-04-26T19:45:45.891Z,24.69
2019-04-26T19:48:20.656Z,24.66
2019-04-26T19:50:53.279Z,24.68
2019-04-26T19:53:42.355Z,24.65
2019-04-26T19:56:31.409Z,24.63
2019-04-26T19:58:59.917Z,24.58
2019-04-26T20:01:28.020Z,24.57
2019-04-26T20:03:56.711Z,24.51
2019-04-26T20:06:26.794Z,24.51
2019-04-26T20:08:54.689Z,24.52
2019-04-26T20:11:22.738Z,24.50
2019-04-26T20:13:51.737Z,24.50
2019-04-26T20:16:22.631Z,24.46
2019-04-26T20:18:52.326Z,24.45
2019-04-26T20:21:21.813Z,24.43
2019-04-26T20:23:52.161Z,24.39
2019-04-26T20:26:20.025Z,24.34
2019-04-26T20:28:48.388Z,24.28
2019-04-26T20:31:25.159Z,24.24
2019-04-26T20:33:53.329Z,24.22
2019-04-26T20:36:22.543Z,24.16
2019-04-26T20:38:52.185Z,24.12
2019-04-26T20:41:21.961Z,24.07
2019-04-26T20:44:04.299Z,24.04
2019-04-26T20:46:25.085Z,23.95
2019-04-26T20:48:53.427Z,23.90
2019-04-26T20:51:22.524Z,23.87
2019-04-26T20:53:52.065Z,23.85
2019-04-26T20:56:22.370Z,23.84
2019-04-26T20:58:52.275Z,23.82
2019-04-26T21:01:22.227Z,23.81
2019-04-26T21:03:51.721Z,23.75
2019-04-26T21:06:22.227Z,23.68
2019-04-26T21:08:53.767Z,23.66
2019-04-26T21:11:21.832Z,23.60
2019-04-26T21:13:51.790Z,23.56
2019-04-26T21:16:20.006Z,23.49
2019-04-26T21:18:47.967Z,23.44
2019-04-26T21:21:16.613Z,23.36
2019-04-26T21:23:46.539Z,23.30
2019-04-26T21:26:28.364Z,23.21
2019-04-26T21:29:24.331Z,23.20
2019-04-26T21:32:09.776Z,23.18
2019-04-26T21:34:39.223Z,23.06
2019-04-26T21:37:43.095Z,22.35
2019-04-26T21:40:25.085Z,22.15
2019-04-26T21:42:55.275Z,21.84
2019-04-26T21:45:28.412Z,21.55
2019-04-26T21:47:51.800Z,21.37
2019-04-26T21:50:19.953Z,21.40
2019-04-26T21:52:47.949Z,21.08
2019-04-26T21:55:16.701Z,20.75
2019-04-26T21:57:44.680Z,20.75
2019-04-26T22:00:35.231Z,20.76
2019-04-26T22:03:03.778Z,20.68
2019-04-26T22:05:35.081Z,20.53
2019-04-26T22:08:03.444Z,20.34
2019-04-26T22:10:43.684Z,20.31
2019-04-26T22:13:11.473Z,20.23
2019-04-26T22:16:30.604Z,20.11
2019-04-26T22:19:14.602Z,20.00
2019-04-26T22:21:50.258Z,19.89
2019-04-26T22:24:23.427Z,19.94
2019-04-26T22:26:53.124Z,20.02
2019-04-26T22:29:22.893Z,19.99
2019-04-26T22:31:51.078Z,19.89
2019-04-26T22:34:18.964Z,19.84
2019-04-26T22:36:46.913Z,19.95
2019-04-26T22:39:18.483Z,20.01
2019-04-26T22:41:46.529Z,19.98
2019-04-26T22:44:26.417Z,19.88
2019-04-26T22:47:03.655Z,19.99
2019-04-26T22:49:29.289Z,19.61
2019-04-26T22:51:57.332Z,19.30
2019-04-26T22:54:25.228Z,19.21
2019-04-26T22:56:53.799Z,18.92
2019-04-26T22:59:22.918Z,18.91
2019-04-26T23:01:53.418Z,18.82
2019-04-26T23:04:23.721Z,18.88
2019-04-26T23:06:51.385Z,18.84
2019-04-26T23:09:20.760Z,18.73
2019-04-26T23:11:55.089Z,18.73
2019-04-26T23:14:33.346Z,18.53
2019-04-26T23:17:20.987Z,18.63
2019-04-26T23:19:57.378Z,18.88
2019-04-26T23:22:40.032Z,18.97
2019-04-26T23:25:08.075Z,18.69
2019-04-26T23:27:35.941Z,18.39
2019-04-26T23:30:04.102Z,18.40
2019-04-26T23:32:33.791Z,18.53
2019-04-26T23:35:02.902Z,18.40
2019-04-26T23:37:32.415Z,18.05
2019-04-26T23:40:00.375Z,17.73
2019-04-26T23:42:28.231Z,17.92
2019-04-26T23:44:56.110Z,17.85
2019-04-26T23:47:25.662Z,17.76
2019-04-26T23:49:57.034Z,17.52
2019-04-26T23:52:25.194Z,17.56
2019-04-26T23:54:53.072Z,17.37
2019-04-26T23:57:20.880Z,17.43
2019-04-26T23:59:51.050Z,17.42
